createdAt,value
2017-11-09T00:00:38.091Z,6.19
2017-11-09T00:01:48.058Z,6.25
2017-11-09T00:02:58.370Z,6.2
2017-11-09T00:04:08.360Z,6.34
2017-11-09T00:05:18.654Z,6.28
2017-11-09T00:06:28.635Z,6.25
2017-11-09T00:07:38.622Z,6.25
2017-11-09T00:08:48.598Z,6.28
2017-11-09T00:09:58.905Z,6.32
2017-11-09T00:11:09.202Z,6.17
2017-11-09T00:12:18.837Z,6.15
2017-11-09T00:13:28.485Z,6.13
2017-11-09T00:14:38.807Z,6.1
2017-11-09T00:15:48.780Z,6.19
2017-11-09T00:16:58.756Z,6.15
2017-11-09T00:18:08.732Z,6.17
2017-11-09T00:19:19.083Z,6.15
2017-11-09T00:20:29.060Z,6.19
2017-11-09T00:21:38.717Z,6.16
2017-11-09T00:22:48.688Z,6.12
2017-11-09T00:23:58.340Z,6.16
2017-11-09T00:25:08.530Z,6.34
2017-11-09T00:26:18.852Z,6.22
2017-11-09T00:27:29.168Z,6.15
2017-11-09T00:28:39.478Z,6.28
2017-11-09T00:29:49.449Z,6.25
2017-11-09T00:30:59.449Z,6.26
2017-11-09T00:32:09.433Z,6.29
2017-11-09T00:33:19.093Z,6.29
2017-11-09T00:34:28.747Z,6.38
2017-11-09T00:35:39.060Z,6.41
2017-11-09T00:36:49.368Z,6.39
2017-11-09T00:37:59.663Z,6.57
2017-11-09T00:39:09.646Z,6.56
2017-11-09T00:40:19.622Z,6.5
2017-11-09T00:41:29.598Z,6.57
2017-11-09T00:42:39.917Z,6.57
2017-11-09T00:43:50.219Z,6.62
2017-11-09T00:45:00.514Z,6.56
2017-11-09T00:46:10.485Z,6.59
2017-11-09T00:47:20.140Z,6.68
2017-11-09T00:48:29.781Z,6.67
2017-11-09T00:49:40.087Z,6.68
2017-11-09T00:50:50.418Z,6.72
2017-11-09T00:52:00.735Z,6.83
2017-11-09T00:53:10.387Z,6.71
2017-11-09T00:54:20.707Z,6.85
2017-11-09T00:55:30.342Z,6.83
2017-11-09T00:56:40.322Z,6.75
2017-11-09T00:57:50.188Z,6.7
2017-11-09T00:59:00.501Z,6.65
2017-11-09T01:00:09.820Z,6.72
2017-11-09T01:01:19.779Z,6.57
2017-11-09T01:02:29.763Z,6.57
2017-11-09T01:03:39.738Z,6.59
2017-11-09T01:04:49.379Z,6.64
2017-11-09T01:05:59.373Z,6.5
2017-11-09T01:07:09.690Z,6.46
2017-11-09T01:08:19.686Z,6.47
2017-11-09T01:09:29.034Z,6.53
2017-11-09T01:10:39.369Z,6.36
2017-11-09T01:11:49.711Z,6.35
2017-11-09T01:12:59.837Z,6.34
2017-11-09T01:14:10.173Z,6.31
2017-11-09T01:15:20.473Z,6.38
2017-11-09T01:16:30.792Z,6.43
2017-11-09T01:17:40.789Z,6.35
2017-11-09T01:18:51.093Z,6.38
2017-11-09T01:20:01.400Z,6.44
2017-11-09T01:21:11.374Z,6.49
2017-11-09T01:22:21.347Z,6.46
2017-11-09T01:23:31.324Z,6.47
2017-11-09T01:24:41.700Z,6.49
2017-11-09T01:25:52.012Z,6.36
2017-11-09T01:27:01.998Z,6.41
2017-11-09T01:28:11.985Z,6.41
2017-11-09T01:29:21.968Z,6.35
2017-11-09T01:30:31.950Z,6.36
2017-11-09T01:31:41.273Z,6.29
2017-11-09T01:32:50.927Z,6.29
2017-11-09T01:34:00.917Z,6.29
2017-11-09T01:35:11.230Z,6.35
2017-11-09T01:36:21.198Z,6.34
2017-11-09T01:37:31.511Z,6.38
2017-11-09T01:38:41.812Z,6.35
2017-11-09T01:39:52.364Z,6.32
2017-11-09T01:41:02.009Z,6.36
2017-11-09T01:42:12.314Z,6.39
2017-11-09T01:43:22.626Z,6.36
2017-11-09T01:44:32.615Z,6.38
2017-11-09T01:45:42.930Z,6.38
2017-11-09T01:46:53.248Z,6.34
2017-11-09T01:48:03.237Z,6.31
2017-11-09T01:49:13.220Z,6.26
2017-11-09T01:50:23.252Z,6.32
2017-11-09T01:51:33.230Z,6.29
2017-11-09T01:52:43.198Z,6.15
2017-11-09T01:53:53.526Z,6.22
2017-11-09T01:55:03.833Z,6.25
2017-11-09T01:56:13.802Z,6.2
2017-11-09T01:57:24.101Z,6.22
2017-11-09T01:58:33.100Z,6.19
2017-11-09T01:59:43.084Z,6.13
2017-11-09T02:00:53.633Z,6.13
2017-11-09T02:02:03.612Z,6.2
2017-11-09T02:03:13.919Z,6.17
2017-11-09T02:04:24.219Z,6.15
2017-11-09T02:05:34.193Z,6.17
2017-11-09T02:06:44.513Z,6.19
2017-11-09T02:07:54.164Z,6.15
2017-11-09T02:09:04.137Z,6.17
2017-11-09T02:10:14.439Z,6.17
2017-11-09T02:11:24.450Z,6.19
2017-11-09T02:12:34.419Z,6.15
2017-11-09T02:13:44.396Z,6.19
2017-11-09T02:14:54.374Z,6.17
2017-11-09T02:16:04.352Z,6.13
2017-11-09T02:17:14.009Z,6.12
2017-11-09T02:18:24.010Z,6.05
2017-11-09T02:19:33.331Z,6.12
2017-11-09T02:20:43.638Z,6.05
2017-11-09T02:21:53.626Z,6.09
2017-11-09T02:23:03.285Z,6.09
2017-11-09T02:24:13.264Z,6.09
2017-11-09T02:25:22.917Z,6.07
2017-11-09T02:26:33.222Z,6.16
2017-11-09T02:27:43.110Z,6.09
2017-11-09T02:28:53.087Z,6.05
2017-11-09T02:30:02.727Z,6.17
2017-11-09T02:31:12.711Z,6.17
2017-11-09T02:32:22.405Z,6.28
2017-11-09T02:33:32.728Z,6.2
2017-11-09T02:34:42.704Z,6.31
2017-11-09T02:35:53.021Z,6.31
2017-11-09T02:37:03.027Z,6.22
2017-11-09T02:38:12.996Z,6.32
2017-11-09T02:39:22.987Z,6.29
2017-11-09T02:40:32.640Z,6.32
2017-11-09T02:41:42.320Z,6.35
2017-11-09T02:42:52.612Z,6.39
2017-11-09T02:44:02.587Z,6.34
2017-11-09T02:45:12.882Z,6.22
2017-11-09T02:46:22.874Z,6.34
2017-11-09T02:47:32.844Z,6.36
2017-11-09T02:48:43.140Z,6.31
2017-11-09T02:49:53.135Z,6.31
2017-11-09T02:51:03.111Z,6.39
2017-11-09T02:52:13.105Z,6.41
2017-11-09T02:53:23.105Z,6.29
2017-11-09T02:54:33.433Z,6.34
2017-11-09T02:55:43.418Z,6.29
2017-11-09T02:56:53.073Z,6.28
2017-11-09T02:58:03.053Z,6.19
2017-11-09T02:59:13.356Z,6.17
2017-11-09T03:00:23.322Z,6.16
2017-11-09T03:01:33.290Z,6.19
2017-11-09T03:02:43.585Z,6.19
2017-11-09T03:03:53.895Z,6.28
2017-11-09T03:05:03.885Z,6.29
2017-11-09T03:06:12.546Z,6.28
2017-11-09T03:07:22.196Z,6.31
2017-11-09T03:08:32.515Z,6.25
2017-11-09T03:09:42.711Z,6.16
2017-11-09T03:10:53.032Z,6.13
2017-11-09T03:12:03.018Z,6.13
2017-11-09T03:13:13.328Z,6.15
2017-11-09T03:14:23.302Z,6.25
2017-11-09T03:15:33.506Z,6.12
2017-11-09T03:16:43.479Z,6.13
2017-11-09T03:17:53.798Z,6.17
2017-11-09T03:19:03.779Z,6.12
2017-11-09T03:20:14.080Z,6.02
2017-11-09T03:21:23.737Z,6.12
2017-11-09T03:22:34.056Z,6.22
2017-11-09T03:23:44.048Z,6.2
2017-11-09T03:24:53.720Z,6.15
2017-11-09T03:26:03.697Z,6.25
2017-11-09T03:27:13.668Z,6.31
2017-11-09T03:28:23.676Z,6.32
2017-11-09T03:29:33.992Z,6.28
2017-11-09T03:30:44.303Z,6.31
2017-11-09T03:31:54.314Z,6.31
2017-11-09T03:33:04.284Z,6.35
2017-11-09T03:34:14.259Z,6.34
2017-11-09T03:35:23.904Z,6.36
2017-11-09T03:36:33.880Z,6.43
2017-11-09T03:37:43.537Z,6.44
2017-11-09T03:38:53.505Z,6.39
2017-11-09T03:40:03.166Z,6.32
2017-11-09T03:41:13.147Z,6.36
2017-11-09T03:42:23.475Z,6.35
2017-11-09T03:43:33.784Z,6.43
2017-11-09T03:44:43.771Z,6.35
2017-11-09T03:45:53.776Z,6.35
2017-11-09T03:47:04.090Z,6.31
2017-11-09T03:48:14.060Z,6.38
2017-11-09T03:49:23.709Z,6.36
2017-11-09T03:50:34.026Z,6.44
2017-11-09T03:51:44.363Z,6.38
2017-11-09T03:52:54.667Z,6.44
2017-11-09T03:54:04.349Z,6.47
2017-11-09T03:55:14.689Z,6.52
2017-11-09T03:56:24.659Z,6.53
2017-11-09T03:57:34.634Z,6.35
2017-11-09T03:58:44.601Z,6.44
2017-11-09T03:59:54.897Z,6.5
2017-11-09T04:01:04.929Z,6.36
2017-11-09T04:02:15.241Z,6.31
2017-11-09T04:03:24.878Z,6.35
2017-11-09T04:04:34.863Z,6.35
2017-11-09T04:05:44.838Z,6.35
2017-11-09T04:06:54.477Z,6.38
2017-11-09T04:08:04.789Z,6.26
2017-11-09T04:09:14.757Z,6.26
2017-11-09T04:10:24.755Z,6.32
2017-11-09T04:11:34.403Z,6.31
2017-11-09T04:12:44.395Z,6.35
2017-11-09T04:13:54.370Z,6.34
2017-11-09T04:15:04.602Z,6.29
2017-11-09T04:16:14.248Z,6.25
2017-11-09T04:17:24.575Z,6.19
2017-11-09T04:18:34.893Z,6.34
2017-11-09T04:19:45.201Z,6.25
2017-11-09T04:20:55.193Z,6.26
2017-11-09T04:22:05.182Z,6.2
2017-11-09T04:23:15.485Z,6.31
2017-11-09T04:24:25.800Z,6.32
2017-11-09T04:25:36.105Z,6.31
2017-11-09T04:26:46.420Z,6.28
2017-11-09T04:27:56.072Z,6.22
2017-11-09T04:29:05.732Z,6.32
2017-11-09T04:30:16.023Z,6.32
2017-11-09T04:31:26.329Z,6.31
2017-11-09T04:32:35.984Z,6.29
2017-11-09T04:33:46.281Z,6.19
2017-11-09T04:34:56.639Z,6.19
2017-11-09T04:36:06.600Z,6.22
2017-11-09T04:37:16.246Z,6.17
2017-11-09T04:38:26.215Z,6.16
2017-11-09T04:39:36.196Z,6.28
2017-11-09T04:40:45.176Z,6.28
2017-11-09T04:41:55.491Z,6.26
2017-11-09T04:43:05.480Z,6.29
2017-11-09T04:44:15.473Z,6.36
2017-11-09T04:45:25.441Z,6.43
2017-11-09T04:46:35.408Z,6.41
2017-11-09T04:47:45.719Z,6.36
2017-11-09T04:48:56.024Z,6.39
2017-11-09T04:50:05.707Z,6.39
2017-11-09T04:51:15.375Z,6.49
2017-11-09T04:52:25.670Z,6.5
2017-11-09T04:53:35.632Z,6.41
2017-11-09T04:54:45.616Z,6.39
2017-11-09T04:55:55.943Z,6.41
2017-11-09T04:57:06.246Z,6.31
2017-11-09T04:58:16.558Z,6.31
2017-11-09T04:59:26.866Z,6.28
2017-11-09T05:00:37.188Z,6.31
2017-11-09T05:01:46.514Z,6.29
2017-11-09T05:02:56.518Z,6.32
2017-11-09T05:04:06.503Z,6.26
2017-11-09T05:05:16.801Z,6.31
2017-11-09T05:06:26.792Z,6.29
2017-11-09T05:07:36.427Z,6.28
2017-11-09T05:08:46.743Z,6.36
2017-11-09T05:09:56.748Z,6.32
2017-11-09T05:11:06.745Z,6.38
2017-11-09T05:12:16.417Z,6.29
2017-11-09T05:13:26.721Z,6.43
2017-11-09T05:14:37.032Z,6.39
2017-11-09T05:15:47.326Z,6.47
2017-11-09T05:16:57.632Z,6.56
2017-11-09T05:18:07.929Z,6.54
2017-11-09T05:19:18.239Z,6.54
2017-11-09T05:20:28.210Z,6.53
2017-11-09T05:21:38.538Z,6.53
2017-11-09T05:22:48.516Z,6.49
2017-11-09T05:23:58.833Z,6.52
2017-11-09T05:25:08.479Z,6.65
2017-11-09T05:26:18.453Z,6.59
2017-11-09T05:27:28.755Z,6.59
2017-11-09T05:28:39.064Z,6.72
2017-11-09T05:29:49.039Z,6.68
2017-11-09T05:30:59.352Z,6.68
2017-11-09T05:32:09.650Z,6.7
2017-11-09T05:33:19.963Z,6.56
2017-11-09T05:34:30.256Z,6.57
2017-11-09T05:35:40.257Z,6.56
2017-11-09T05:36:50.564Z,6.62
2017-11-09T05:38:00.886Z,6.57
2017-11-09T05:39:10.860Z,6.59
2017-11-09T05:40:20.514Z,6.56
2017-11-09T05:41:30.513Z,6.56
2017-11-09T05:42:40.821Z,6.56
2017-11-09T05:43:51.127Z,6.53
2017-11-09T05:45:01.100Z,6.53
2017-11-09T05:46:11.081Z,6.41
2017-11-09T05:47:20.744Z,6.46
2017-11-09T05:48:30.737Z,6.34
2017-11-09T05:49:40.704Z,6.34
2017-11-09T05:50:50.020Z,6.29
2017-11-09T05:51:59.988Z,6.28
2017-11-09T05:53:10.296Z,6.38
2017-11-09T05:54:19.951Z,6.29
2017-11-09T05:55:30.267Z,6.34
2017-11-09T05:56:40.503Z,6.29
2017-11-09T05:57:50.823Z,6.32
2017-11-09T05:59:01.144Z,6.38
2017-11-09T06:00:11.460Z,6.41
2017-11-09T06:01:21.763Z,6.38
2017-11-09T06:02:32.070Z,6.28
2017-11-09T06:03:41.750Z,6.34
2017-11-09T06:04:52.071Z,6.39
2017-11-09T06:06:01.710Z,6.39
2017-11-09T06:07:12.035Z,6.35
2017-11-09T06:08:22.339Z,6.36
2017-11-09T06:09:32.660Z,6.35
2017-11-09T06:10:42.959Z,6.29
2017-11-09T06:11:52.592Z,6.28
2017-11-09T06:13:02.580Z,6.38
2017-11-09T06:14:12.888Z,6.35
2017-11-09T06:15:23.189Z,6.35
2017-11-09T06:16:33.526Z,6.36
2017-11-09T06:17:43.821Z,6.38
2017-11-09T06:18:54.158Z,6.39
2017-11-09T06:20:04.139Z,6.46
2017-11-09T06:21:14.441Z,6.43
2017-11-09T06:22:24.084Z,6.41
2017-11-09T06:23:34.393Z,6.29
2017-11-09T06:24:44.715Z,6.35
2017-11-09T06:25:55.017Z,6.25
2017-11-09T06:27:05.011Z,6.26
2017-11-09T06:28:15.321Z,6.29
2017-11-09T06:29:26.359Z,6.32
2017-11-09T06:30:36.353Z,6.26
2017-11-09T06:31:46.334Z,6.32
2017-11-09T06:32:56.637Z,6.25
2017-11-09T06:34:06.606Z,6.32
2017-11-09T06:35:15.926Z,6.26
2017-11-09T06:36:26.228Z,6.32
2017-11-09T06:37:36.201Z,6.28
2017-11-09T06:38:45.858Z,6.29
2017-11-09T06:39:55.852Z,6.34
2017-11-09T06:41:06.150Z,6.32
2017-11-09T06:42:16.471Z,6.25
2017-11-09T06:43:26.785Z,6.29
2017-11-09T06:44:37.104Z,6.35
2017-11-09T06:45:47.130Z,6.31
2017-11-09T06:46:57.101Z,6.32
2017-11-09T06:48:07.430Z,6.26
2017-11-09T06:49:17.660Z,6.32
2017-11-09T06:50:27.970Z,6.31
2017-11-09T06:51:38.284Z,6.26
2017-11-09T06:52:48.273Z,6.31
2017-11-09T06:53:58.253Z,6.31
2017-11-09T06:55:08.557Z,6.38
2017-11-09T06:56:18.584Z,6.32
2017-11-09T06:57:28.555Z,6.32
2017-11-09T06:58:38.203Z,6.31
2017-11-09T06:59:48.495Z,6.39
2017-11-09T07:00:58.505Z,6.41
2017-11-09T07:02:08.505Z,6.43
2017-11-09T07:03:18.486Z,6.41
2017-11-09T07:04:28.503Z,6.32
2017-11-09T07:05:38.798Z,6.26
2017-11-09T07:06:48.778Z,6.34
2017-11-09T07:07:58.754Z,6.17
2017-11-09T07:09:08.422Z,6.13
2017-11-09T07:10:18.087Z,6.15
2017-11-09T07:11:28.077Z,6.15
2017-11-09T07:12:37.411Z,5.99
2017-11-09T07:13:47.723Z,6.07
2017-11-09T07:14:57.705Z,6.02
2017-11-09T07:16:08.048Z,6.1
2017-11-09T07:17:18.038Z,5.97
2017-11-09T07:18:27.371Z,6.07
2017-11-09T07:19:37.361Z,6.12
2017-11-09T07:20:47.551Z,6.09
2017-11-09T07:21:57.872Z,6.12
2017-11-09T07:23:08.194Z,6.09
2017-11-09T07:24:18.514Z,6.06
2017-11-09T07:25:28.839Z,6.13
2017-11-09T07:26:39.169Z,6.15
2017-11-09T07:27:49.486Z,6.17
2017-11-09T07:28:59.798Z,6.17
2017-11-09T07:30:10.118Z,6.16
2017-11-09T07:31:20.455Z,6.17
2017-11-09T07:32:30.774Z,6.13
2017-11-09T07:33:41.095Z,6.31
2017-11-09T07:34:51.089Z,6.29
2017-11-09T07:36:01.443Z,6.29
2017-11-09T07:37:11.779Z,6.28
2017-11-09T07:38:21.448Z,6.32
2017-11-09T07:39:31.110Z,6.44
2017-11-09T07:40:41.449Z,6.31
2017-11-09T07:41:51.776Z,6.36
2017-11-09T07:43:01.531Z,6.53
2017-11-09T07:44:11.537Z,6.54
2017-11-09T07:45:21.861Z,6.47
2017-11-09T07:46:32.203Z,6.52
2017-11-09T07:47:41.899Z,6.59
2017-11-09T07:48:51.890Z,6.56
2017-11-09T07:50:02.219Z,6.52
2017-11-09T07:51:12.203Z,6.35
2017-11-09T07:52:22.549Z,6.36
2017-11-09T07:53:32.276Z,6.29
2017-11-09T07:54:42.284Z,6.35
2017-11-09T07:55:52.639Z,6.31
2017-11-09T07:57:02.670Z,6.32
2017-11-09T07:58:13.038Z,6.25
2017-11-09T07:59:23.453Z,6.26
2017-11-09T08:00:33.774Z,6.35
2017-11-09T08:01:43.438Z,6.26
2017-11-09T08:02:53.450Z,6.29
2017-11-09T08:04:03.780Z,6.28
2017-11-09T08:05:13.801Z,6.26
2017-11-09T08:06:23.847Z,6.28
2017-11-09T08:07:33.209Z,6.32
2017-11-09T08:08:43.592Z,6.31
2017-11-09T08:09:53.927Z,6.34
2017-11-09T08:11:04.244Z,6.28
2017-11-09T08:12:14.241Z,6.29
2017-11-09T08:13:24.578Z,6.25
2017-11-09T08:14:34.930Z,6.35
2017-11-09T08:15:44.277Z,6.35
2017-11-09T08:16:54.261Z,6.32
2017-11-09T08:18:04.617Z,6.35
2017-11-09T08:19:14.946Z,6.29
2017-11-09T08:20:25.279Z,6.35
2017-11-09T08:21:35.269Z,6.31
2017-11-09T08:22:45.591Z,6.28
2017-11-09T08:23:55.909Z,6.28
2017-11-09T08:25:06.240Z,6.25
2017-11-09T08:26:16.276Z,6.29
2017-11-09T08:27:25.965Z,6.28
2017-11-09T08:28:35.945Z,6.19
2017-11-09T08:29:45.956Z,6.15
2017-11-09T08:30:55.949Z,6.19
2017-11-09T08:32:05.962Z,6.13
2017-11-09T08:33:16.323Z,6.09
2017-11-09T08:34:26.657Z,6.15
2017-11-09T08:35:36.647Z,6.15
2017-11-09T08:36:46.956Z,6.19
2017-11-09T08:37:56.931Z,6.15
2017-11-09T08:39:06.949Z,6.13
2017-11-09T08:40:16.611Z,6.1
2017-11-09T08:41:26.932Z,6.19
2017-11-09T08:42:37.251Z,6.13
2017-11-09T08:43:46.919Z,6.19
2017-11-09T08:44:57.499Z,6.29
2017-11-09T08:46:07.812Z,6.25
2017-11-09T08:47:18.150Z,6.31
2017-11-09T08:48:28.166Z,6.29
2017-11-09T08:49:38.158Z,6.34
2017-11-09T08:50:47.825Z,6.25
2017-11-09T08:51:57.818Z,6.29
2017-11-09T08:53:08.124Z,6.25
2017-11-09T08:54:18.104Z,6.2
2017-11-09T08:55:28.461Z,6.12
2017-11-09T08:56:38.823Z,6.17
2017-11-09T08:57:48.827Z,6.15
2017-11-09T08:58:59.186Z,6.17
2017-11-09T09:00:09.536Z,6.13
2017-11-09T09:01:19.885Z,6.12
2017-11-09T09:02:29.554Z,6.13
2017-11-09T09:03:39.216Z,6.12
2017-11-09T09:04:48.890Z,6.1
2017-11-09T09:05:59.208Z,6.07
2017-11-09T09:07:09.201Z,6.1
2017-11-09T09:08:19.210Z,6.09
2017-11-09T09:09:29.218Z,6.15
2017-11-09T09:10:39.274Z,6.06
2017-11-09T09:11:49.296Z,6.09
2017-11-09T09:12:59.626Z,6.15
2017-11-09T09:14:09.629Z,6.19
2017-11-09T09:15:19.652Z,6.15
2017-11-09T09:16:29.669Z,6.13
2017-11-09T09:17:39.667Z,6.16
2017-11-09T09:18:49.693Z,6.25
2017-11-09T09:20:00.030Z,6.12
2017-11-09T09:21:10.426Z,6.26
2017-11-09T09:22:20.631Z,6.25
2017-11-09T09:23:30.957Z,6.25
2017-11-09T09:24:41.282Z,6.32
2017-11-09T09:25:51.292Z,6.29
2017-11-09T09:27:01.291Z,6.29
2017-11-09T09:28:11.263Z,6.22
2017-11-09T09:29:21.251Z,6.19
2017-11-09T09:30:31.226Z,6.12
2017-11-09T09:31:41.551Z,6.1
2017-11-09T09:32:51.203Z,6.16
2017-11-09T09:34:01.526Z,6.15
2017-11-09T09:35:11.518Z,6.12
2017-11-09T09:36:21.825Z,6.12
2017-11-09T09:37:31.859Z,6.17
2017-11-09T09:38:42.179Z,6.12
2017-11-09T09:39:51.833Z,6.31
2017-11-09T09:41:01.843Z,6.2
2017-11-09T09:42:11.419Z,6.25
2017-11-09T09:43:21.083Z,6.29
2017-11-09T09:44:31.438Z,6.15
2017-11-09T09:45:41.148Z,6.13
2017-11-09T09:46:51.158Z,6.17
2017-11-09T09:48:01.547Z,6.22
2017-11-09T09:49:11.867Z,6.34
2017-11-09T09:50:22.165Z,6.32
2017-11-09T09:51:32.512Z,6.31
2017-11-09T09:52:42.500Z,6.32
2017-11-09T09:53:52.550Z,6.36
2017-11-09T09:55:02.194Z,6.41
2017-11-09T09:56:11.521Z,6.5
2017-11-09T09:57:21.508Z,6.47
2017-11-09T09:58:31.840Z,6.46
2017-11-09T09:59:42.173Z,6.41
2017-11-09T10:00:52.485Z,6.38
2017-11-09T10:02:02.823Z,6.29
2017-11-09T10:03:12.801Z,6.46
2017-11-09T10:04:22.796Z,6.39
2017-11-09T10:05:32.783Z,6.44
2017-11-09T10:06:42.773Z,6.46
2017-11-09T10:07:52.777Z,6.35
2017-11-09T10:09:02.429Z,6.34
2017-11-09T10:10:12.437Z,6.26
2017-11-09T10:11:22.107Z,6.28
2017-11-09T10:12:32.184Z,6.43
2017-11-09T10:13:42.234Z,6.39
2017-11-09T10:14:52.776Z,6.26
2017-11-09T10:16:02.758Z,6.29
2017-11-09T10:17:13.102Z,6.2
2017-11-09T10:18:22.800Z,6.1
2017-11-09T10:19:32.822Z,6.06
2017-11-09T10:20:43.211Z,6.13
2017-11-09T10:21:52.874Z,6.02
2017-11-09T10:23:02.860Z,5.98
2017-11-09T10:24:13.180Z,6.06
2017-11-09T10:25:23.183Z,6.1
2017-11-09T10:26:33.154Z,6.1
2017-11-09T10:27:42.803Z,6.13
2017-11-09T10:28:52.857Z,6.12
2017-11-09T10:30:02.904Z,6.2
2017-11-09T10:31:13.222Z,6.12
2017-11-09T10:32:23.533Z,6.15
2017-11-09T10:33:33.533Z,6.2
2017-11-09T10:34:43.191Z,6.32
2017-11-09T10:35:53.178Z,6.26
2017-11-09T10:37:02.835Z,6.26
2017-11-09T10:38:13.171Z,6.35
2017-11-09T10:39:23.522Z,6.35
2017-11-09T10:40:33.540Z,6.39
2017-11-09T10:41:43.532Z,6.35
2017-11-09T10:42:53.872Z,6.38
2017-11-09T10:44:04.220Z,6.44
2017-11-09T10:45:14.548Z,6.36
2017-11-09T10:46:24.878Z,6.35
2017-11-09T10:47:35.215Z,6.36
2017-11-09T10:48:45.521Z,6.39
2017-11-09T10:49:55.523Z,6.39
2017-11-09T10:51:05.822Z,6.38
2017-11-09T10:52:15.811Z,6.41
2017-11-09T10:53:26.126Z,6.34
2017-11-09T10:54:46.872Z,6.26
2017-11-09T10:55:57.182Z,6.35
2017-11-09T10:57:07.168Z,6.28
2017-11-09T10:58:17.504Z,6.34
2017-11-09T10:59:27.807Z,6.25
2017-11-09T11:00:37.703Z,6.32
2017-11-09T11:01:47.367Z,6.36
2017-11-09T11:02:57.034Z,6.26
2017-11-09T11:04:07.357Z,6.29
2017-11-09T11:05:17.735Z,6.22
2017-11-09T11:06:27.725Z,6.25
2017-11-09T11:07:37.741Z,6.34
2017-11-09T11:08:48.050Z,6.38
2017-11-09T11:09:58.379Z,6.36
2017-11-09T11:11:08.048Z,6.43
2017-11-09T11:12:18.362Z,6.35
2017-11-09T11:13:28.344Z,6.36
2017-11-09T11:14:38.672Z,6.39
2017-11-09T11:15:48.334Z,6.39
2017-11-09T11:16:58.660Z,6.41
2017-11-09T11:18:09.017Z,6.34
2017-11-09T11:19:19.041Z,6.34
2017-11-09T11:20:29.393Z,6.41
2017-11-09T11:21:39.734Z,6.43
2017-11-09T11:22:50.045Z,6.39
2017-11-09T11:24:00.024Z,6.38
2017-11-09T11:25:10.009Z,6.36
2017-11-09T11:26:19.987Z,6.36
2017-11-09T11:27:30.297Z,6.32
2017-11-09T11:28:40.696Z,6.31
2017-11-09T11:29:50.709Z,6.29
2017-11-09T11:31:01.040Z,6.28
2017-11-09T11:32:10.703Z,6.35
2017-11-09T11:33:20.689Z,6.32
2017-11-09T11:34:30.686Z,6.31
2017-11-09T11:35:40.668Z,6.35
2017-11-09T11:36:50.660Z,6.31
2017-11-09T11:38:00.641Z,6.38
2017-11-09T11:39:10.294Z,6.38
2017-11-09T11:40:20.597Z,6.41
2017-11-09T11:41:30.930Z,6.41
2017-11-09T11:42:41.268Z,6.35
2017-11-09T11:43:51.287Z,6.26
2017-11-09T11:45:00.947Z,6.36
2017-11-09T11:46:11.261Z,6.38
2017-11-09T11:47:21.579Z,6.39
2017-11-09T11:48:31.563Z,6.29
2017-11-09T11:49:41.896Z,6.32
2017-11-09T11:50:51.881Z,6.36
2017-11-09T11:52:01.237Z,6.38
2017-11-09T11:53:10.577Z,6.36
2017-11-09T11:54:20.219Z,6.36
2017-11-09T11:55:30.521Z,6.35
2017-11-09T11:56:40.507Z,6.31
2017-11-09T11:57:50.494Z,6.28
2017-11-09T11:59:00.482Z,6.35
2017-11-09T12:00:10.466Z,6.31
2017-11-09T12:01:20.450Z,6.35
2017-11-09T12:02:30.429Z,6.34
2017-11-09T12:03:40.091Z,6.35
2017-11-09T12:04:50.173Z,6.31
2017-11-09T12:06:00.192Z,6.39
2017-11-09T12:07:10.524Z,6.39
2017-11-09T12:08:20.825Z,6.38
2017-11-09T12:09:31.166Z,6.39
2017-11-09T12:10:40.824Z,6.35
2017-11-09T12:11:50.811Z,6.35
2017-11-09T12:13:00.790Z,6.34
2017-11-09T12:14:11.129Z,6.36
2017-11-09T12:15:21.453Z,6.36
2017-11-09T12:16:31.447Z,6.39
2017-11-09T12:17:41.771Z,6.38
2017-11-09T12:18:52.104Z,6.38
2017-11-09T12:20:02.094Z,6.31
2017-11-09T12:21:12.092Z,6.32
2017-11-09T12:22:22.404Z,6.29
2017-11-09T12:23:32.399Z,6.32
2017-11-09T12:24:42.700Z,6.29
2017-11-09T12:25:52.018Z,6.34
2017-11-09T12:27:02.330Z,6.25
2017-11-09T12:28:12.663Z,6.12
2017-11-09T12:29:22.654Z,6.16
2017-11-09T12:30:32.897Z,6.13
2017-11-09T12:31:42.546Z,6.17
2017-11-09T12:32:52.506Z,6.25
2017-11-09T12:34:02.504Z,6.25
2017-11-09T12:35:12.478Z,6.29
2017-11-09T12:36:21.806Z,6.34
2017-11-09T12:37:32.118Z,6.29
2017-11-09T12:38:41.770Z,6.28
2017-11-09T12:39:51.752Z,6.1
2017-11-09T12:41:02.102Z,6.1
2017-11-09T12:42:11.714Z,6.13
2017-11-09T12:43:21.701Z,6.06
2017-11-09T12:44:31.372Z,6.17
2017-11-09T12:45:41.665Z,6.12
2017-11-09T12:46:51.646Z,6.15
2017-11-09T12:48:01.968Z,6.12
2017-11-09T12:49:12.296Z,6.15
2017-11-09T12:50:22.609Z,6.16
2017-11-09T12:51:32.286Z,6.12
2017-11-09T12:52:42.280Z,6.26
2017-11-09T12:53:52.271Z,6.13
2017-11-09T12:55:01.935Z,6.2
2017-11-09T12:56:12.242Z,6.15
2017-11-09T12:57:21.906Z,6.19
2017-11-09T12:58:32.220Z,6.12
2017-11-09T12:59:42.780Z,6.13
2017-11-09T13:00:53.092Z,6.12
2017-11-09T13:02:03.320Z,6.13
2017-11-09T13:03:13.649Z,6.17
2017-11-09T13:04:24.201Z,6.16
2017-11-09T13:05:34.182Z,6.09
2017-11-09T13:06:44.512Z,6.09
2017-11-09T13:07:54.156Z,6.1
2017-11-09T13:09:04.360Z,6.2
2017-11-09T13:10:14.338Z,6.13
2017-11-09T13:11:23.975Z,6.13
2017-11-09T13:12:34.298Z,6.12
2017-11-09T13:13:44.629Z,6.2
2017-11-09T13:14:54.978Z,6.09
2017-11-09T13:16:05.097Z,6.13
2017-11-09T13:17:15.454Z,6.15
2017-11-09T13:18:25.135Z,6.15
2017-11-09T13:19:34.455Z,6.13
2017-11-09T13:20:44.478Z,6.32
2017-11-09T13:21:54.812Z,6.2
2017-11-09T13:23:04.849Z,6.29
2017-11-09T13:24:14.880Z,6.26
2017-11-09T13:25:25.228Z,6.32
2017-11-09T13:26:35.533Z,6.35
2017-11-09T13:27:45.528Z,6.39
2017-11-09T13:28:55.873Z,6.43
2017-11-09T13:30:06.184Z,6.38
2017-11-09T13:31:16.182Z,6.28
2017-11-09T13:32:26.510Z,6.26
2017-11-09T13:33:36.482Z,6.25
2017-11-09T13:34:46.795Z,6.22
2017-11-09T13:35:56.459Z,6.15
2017-11-09T13:37:06.786Z,6.19
2017-11-09T13:38:16.774Z,6.19
2017-11-09T13:39:26.764Z,6.16
2017-11-09T13:40:36.740Z,6.13
2017-11-09T13:41:46.730Z,6.19
2017-11-09T13:42:56.728Z,6.17
2017-11-09T13:44:07.048Z,6.09
2017-11-09T13:45:17.378Z,6.13
2017-11-09T13:46:27.685Z,6.25
2017-11-09T13:47:38.001Z,6.15
2017-11-09T13:48:48.319Z,6.19
2017-11-09T13:49:57.962Z,6.19
2017-11-09T13:51:07.931Z,6.19
2017-11-09T13:52:18.245Z,6.25
2017-11-09T13:53:27.903Z,6.28
2017-11-09T13:54:37.897Z,6.34
2017-11-09T13:55:48.207Z,6.25
2017-11-09T13:56:58.186Z,6.2
2017-11-09T13:58:08.543Z,6.16
2017-11-09T13:59:18.536Z,6.15
2017-11-09T14:00:28.873Z,6.13
2017-11-09T14:01:38.894Z,6.25
2017-11-09T14:02:48.884Z,6.25
2017-11-09T14:03:58.849Z,6.28
2017-11-09T14:05:08.505Z,6.31
2017-11-09T14:06:18.159Z,6.26
2017-11-09T14:07:27.811Z,6.26
2017-11-09T14:08:37.798Z,6.28
2017-11-09T14:09:47.785Z,6.32
2017-11-09T14:10:56.775Z,6.35
2017-11-09T14:12:07.093Z,6.35
2017-11-09T14:13:17.088Z,6.34
2017-11-09T14:14:27.404Z,6.34
2017-11-09T14:15:37.713Z,6.31
2017-11-09T14:16:47.681Z,6.32
2017-11-09T14:17:57.348Z,6.32
2017-11-09T14:19:07.702Z,6.25
2017-11-09T14:20:18.043Z,6.34
2017-11-09T14:21:28.016Z,6.31
2017-11-09T14:22:38.349Z,6.36
2017-11-09T14:23:47.997Z,6.31
2017-11-09T14:24:58.030Z,6.26
2017-11-09T14:26:08.339Z,6.26
2017-11-09T14:27:18.036Z,6.35
2017-11-09T14:28:28.356Z,6.31
2017-11-09T14:29:38.003Z,6.28
2017-11-09T14:30:48.349Z,6.28
2017-11-09T14:31:58.681Z,6.32
2017-11-09T14:33:08.986Z,6.26
2017-11-09T14:34:18.967Z,6.17
2017-11-09T14:35:29.284Z,6.12
2017-11-09T14:36:38.933Z,6.16
2017-11-09T14:37:49.281Z,6.16
2017-11-09T14:38:59.255Z,6.13
2017-11-09T14:40:08.919Z,6.1
2017-11-09T14:41:19.239Z,6.16
2017-11-09T14:42:29.217Z,6.16
2017-11-09T14:43:38.555Z,6.19
2017-11-09T14:44:48.856Z,6.15
2017-11-09T14:45:59.214Z,6.2
2017-11-09T14:47:09.204Z,6.13
2017-11-09T14:48:18.869Z,6.07
2017-11-09T14:49:28.850Z,6.22
2017-11-09T14:50:39.174Z,6.16
2017-11-09T14:51:49.173Z,6.16
2017-11-09T14:52:59.507Z,6.13
2017-11-09T14:54:09.510Z,6.19
2017-11-09T14:55:19.831Z,6.13
2017-11-09T14:56:30.178Z,6.16
2017-11-09T14:57:39.822Z,6.16
2017-11-09T14:58:49.811Z,6.16
2017-11-09T14:59:59.792Z,6.19
2017-11-09T15:01:10.103Z,6.13
2017-11-09T15:02:19.777Z,6.13
2017-11-09T15:03:29.755Z,6.13
2017-11-09T15:04:40.077Z,6.15
2017-11-09T15:05:50.056Z,6.15
2017-11-09T15:06:59.719Z,6.17
2017-11-09T15:08:09.744Z,6.22
2017-11-09T15:09:20.068Z,6.26
2017-11-09T15:10:30.379Z,6.29
2017-11-09T15:11:40.712Z,6.32
2017-11-09T15:12:51.056Z,6.28
2017-11-09T15:14:01.050Z,6.32
2017-11-09T15:15:11.038Z,6.28
2017-11-09T15:16:20.701Z,6.29
2017-11-09T15:17:30.673Z,6.35
2017-11-09T15:18:40.313Z,6.35
2017-11-09T15:19:50.617Z,6.38
2017-11-09T15:21:00.923Z,6.39
2017-11-09T15:22:10.913Z,6.32
2017-11-09T15:23:21.239Z,6.35
2017-11-09T15:24:30.899Z,6.29
2017-11-09T15:25:40.905Z,6.38
2017-11-09T15:26:50.557Z,6.38
2017-11-09T15:28:00.535Z,6.39
2017-11-09T15:29:10.186Z,6.36
2017-11-09T15:30:20.163Z,6.36
2017-11-09T15:31:30.136Z,6.31
2017-11-09T15:32:40.454Z,6.29
2017-11-09T15:33:50.786Z,6.35